Time;durP1;ratioP1;P1;durP2;ratioP2;P2;SDS_P1;SDS_P2;PMS_P1;PMS_P2;Temp;Humidity;BMP_temperature;BMP_pressure;BME280_temperature;BME280_humidity;BME280_pressure;Samples;Min_cycle;Max_cycle;Signal;HPM_P1;HPM_P2
2022/11/11 00:01:08;;;;;;;67.12;40.92;;;;;;;4.23;80.26;98583.25;1759281;81;25739;-73
2022/11/11 00:03:35;;;;;;;65.08;40.17;;;;;;;4.20;80.25;98578.22;1759455;81;28418;-73
2022/11/11 00:06:04;;;;;;;66.62;40.38;;;;;;;4.18;80.30;98573.50;1759171;81;25775;-75
2022/11/11 00:08:31;;;;;;;68.75;39.92;;;;;;;4.16;80.41;98583.48;1759423;81;25661;-75
2022/11/11 00:11:08;;;;;;;67.97;41.73;;;;;;;4.16;80.44;98589.67;1759548;81;25743;-75
2022/11/11 00:13:37;;;;;;;66.75;40.83;;;;;;;4.15;80.39;98595.16;1759478;80;25270;-73
2022/11/11 00:16:10;;;;;;;68.70;42.53;;;;;;;4.14;80.41;98598.81;1759486;81;27465;-75
2022/11/11 00:27:13;;;;;;;55.63;37.10;;;;;;;4.06;80.55;98609.38;1759332;81;25644;-73
2022/11/11 00:29:40;;;;;;;57.40;36.55;;;;;;;4.02;80.44;98614.15;1759465;81;27401;-73
2022/11/11 00:32:23;;;;;;;60.20;36.70;;;;;;;3.98;80.42;98614.91;1759329;81;25691;-74
2022/11/11 00:37:37;;;;;;;51.18;33.33;;;;;;;3.91;80.14;98617.80;1759200;81;25907;-76
2022/11/11 00:40:05;;;;;;;57.75;35.98;;;;;;;3.89;80.16;98612.25;1759595;81;25455;-73
2022/11/11 00:42:32;;;;;;;53.90;35.68;;;;;;;3.87;80.11;98621.73;1759372;81;28056;-75
2022/11/11 00:44:58;;;;;;;52.75;35.65;;;;;;;3.84;80.04;98623.86;1759328;81;25431;-75
2022/11/11 00:53:01;;;;;;;56.58;36.23;;;;;;;3.76;80.07;98616.52;1673462;85;25798;-73
2022/11/11 00:55:27;;;;;;;54.77;35.03;;;;;;;3.75;80.22;98621.52;1673483;85;27353;-74
2022/11/11 00:57:54;;;;;;;52.03;34.55;;;;;;;3.75;80.33;98622.84;1673429;85;25717;-75
2022/11/11 01:00:20;;;;;;;61.60;37.90;;;;;;;3.76;80.46;98617.86;1673460;85;25789;-74
2022/11/11 01:02:47;;;;;;;62.65;40.48;;;;;;;3.78;80.48;98621.24;1672917;84;26670;-73
2022/11/11 01:05:14;;;;;;;61.88;41.00;;;;;;;3.78;80.58;98621.24;1663459;86;25744;-75
2022/11/11 01:07:40;;;;;;;57.95;39.23;;;;;;;3.78;80.68;98613.72;1663571;86;27433;-73
2022/11/11 01:10:08;;;;;;;51.10;34.85;;;;;;;3.82;80.79;98620.48;1663510;86;25808;-73
2022/11/11 01:12:35;;;;;;;54.27;34.55;;;;;;;3.85;80.86;98613.53;1663534;86;25835;-73
2022/11/11 01:15:01;;;;;;;52.08;33.45;;;;;;;3.83;80.82;98619.01;1663634;86;25790;-75
2022/11/11 01:17:28;;;;;;;55.52;34.33;;;;;;;3.76;80.75;98613.85;1663307;84;25733;-74
2022/11/11 01:19:55;;;;;;;55.52;34.35;;;;;;;3.78;80.87;98615.05;1663560;86;27410;-74
2022/11/11 01:22:22;;;;;;;54.53;35.80;;;;;;;3.79;80.90;98614.92;1663534;86;25733;-73
2022/11/11 01:24:48;;;;;;;54.30;35.45;;;;;;;3.82;80.94;98612.47;1663622;86;25577;-75
2022/11/11 01:27:15;;;;;;;63.55;39.98;;;;;;;3.84;80.98;98610.02;1663492;86;26445;-73
2022/11/11 01:29:41;;;;;;;64.20;40.90;;;;;;;3.85;81.00;98610.37;1663535;86;25286;-73
2022/11/11 01:32:08;;;;;;;56.45;37.17;;;;;;;3.88;81.06;98612.73;1663557;86;28197;-74
2022/11/11 01:34:34;;;;;;;61.73;39.13;;;;;;;3.91;81.17;98608.45;1663364;86;25482;-73
2022/11/11 01:37:01;;;;;;;57.50;36.80;;;;;;;3.96;81.27;98618.73;1663663;86;25804;-74
2022/11/11 01:39:28;;;;;;;62.70;41.95;;;;;;;3.96;81.36;98607.56;1663771;85;25910;-73
2022/11/11 01:41:54;;;;;;;69.12;41.73;;;;;;;3.99;81.37;98607.25;1663470;86;26077;-73
2022/11/11 01:44:43;;;;;;;66.72;43.38;;;;;;;4.01;81.41;98606.27;1663596;84;27428;-73
2022/11/11 01:47:10;;;;;;;73.12;45.78;;;;;;;4.00;81.51;98609.44;1663387;86;25870;-73
2022/11/11 01:49:59;;;;;;;70.97;45.28;;;;;;;4.03;81.62;98610.98;1697871;83;25735;-74
2022/11/11 01:52:39;;;;;;;60.83;44.27;;;;;;;4.06;81.69;98607.55;1686571;85;25903;-74
2022/11/11 01:55:13;;;;;;;69.27;46.13;;;;;;;4.05;81.75;98606.35;1686518;84;25719;-73
2022/11/11 01:57:53;;;;;;;68.47;44.77;;;;;;;4.09;81.80;98607.77;1628363;88;27514;-74
2022/11/11 02:00:21;;;;;;;71.33;46.35;;;;;;;4.09;81.82;98608.61;1586342;89;25850;-73
2022/11/11 02:02:55;;;;;;;70.65;45.03;;;;;;;4.10;81.82;98601.44;1586662;90;25827;-75
2022/11/11 02:05:42;;;;;;;65.65;44.20;;;;;;;4.14;81.86;98608.17;1568723;90;27171;-75
2022/11/11 02:08:30;;;;;;;71.20;44.40;;;;;;;4.17;81.92;98605.22;1589803;89;25819;-74
2022/11/11 02:10:46;;;;;;;63.58;43.17;;;;;;;4.15;81.96;98602.69;1596729;89;27437;-73
2022/11/11 02:16:00;;;;;;;62.95;40.88;;;;;;;4.18;82.09;98601.56;1628765;88;25530;-75
2022/11/11 02:18:28;;;;;;;66.65;41.00;;;;;;;4.20;82.06;98596.92;1628746;88;26495;-74
2022/11/11 02:20:54;;;;;;;68.72;41.45;;;;;;;4.21;82.13;98604.80;1600212;89;26153;-73
2022/11/11 02:23:36;;;;;;;61.70;39.10;;;;;;;4.26;82.15;98603.02;1600076;89;28422;-73
2022/11/11 02:26:05;;;;;;;68.35;40.50;;;;;;;4.30;82.13;98603.09;1628241;88;25793;-74
2022/11/11 02:28:33;;;;;;;66.70;38.67;;;;;;;4.32;82.11;98609.15;1628752;88;25809;-73
2022/11/11 02:30:59;;;;;;;58.35;35.30;;;;;;;4.35;82.15;98615.52;1628876;88;25708;-75
2022/11/11 02:33:26;;;;;;;63.38;36.70;;;;;;;4.38;82.20;98613.91;1628855;88;25599;-75
2022/11/11 02:35:56;;;;;;;62.25;37.70;;;;;;;4.37;82.22;98616.23;1628724;88;27528;-75
2022/11/11 02:38:25;;;;;;;59.98;37.88;;;;;;;4.37;82.22;98620.73;1628254;87;25590;-75
2022/11/11 02:43:38;;;;;;;63.68;36.93;;;;;;;4.38;82.37;98622.42;1590655;90;25920;-74
2022/11/11 02:46:07;;;;;;;62.70;39.00;;;;;;;4.38;82.45;98627.28;1590640;90;25572;-73
2022/11/11 02:48:34;;;;;;;74.05;38.33;;;;;;;4.41;82.51;98632.84;1625599;87;27426;-74
2022/11/11 02:51:00;;;;;;;67.30;37.25;;;;;;;4.41;82.51;98622.98;1668479;85;25851;-75
2022/11/11 02:53:27;;;;;;;67.05;36.25;;;;;;;4.43;82.54;98622.36;1676739;81;25834;-73
2022/11/11 02:55:54;;;;;;;59.90;34.27;;;;;;;4.45;82.56;98629.75;1747253;82;26452;-73
2022/11/11 02:58:20;;;;;;;54.53;34.30;;;;;;;4.47;82.59;98642.45;1747433;82;25775;-73
2022/11/11 03:00:47;;;;;;;59.10;33.18;;;;;;;4.49;82.64;98641.82;1751977;81;28037;-74
2022/11/11 03:03:13;;;;;;;55.23;33.48;;;;;;;4.49;82.62;98641.82;1751817;81;25611;-73
2022/11/11 03:05:40;;;;;;;57.03;33.38;;;;;;;4.53;82.65;98647.25;1748502;82;25766;-74
2022/11/11 03:08:07;;;;;;;52.93;33.42;;;;;;;4.56;82.62;98646.97;1756273;81;25719;-74
2022/11/11 03:10:34;;;;;;;55.55;32.85;;;;;;;4.58;82.69;98646.83;1756440;81;25399;-74
2022/11/11 03:13:00;;;;;;;55.30;32.50;;;;;;;4.61;82.71;98655.38;1756327;81;27523;-73
2022/11/11 03:15:27;;;;;;;56.65;35.13;;;;;;;4.65;82.72;98662.14;1756133;81;25620;-74
2022/11/11 03:17:54;;;;;;;54.15;32.95;;;;;;;4.70;82.72;98662.57;1756366;81;25713;-74
2022/11/11 03:23:09;;;;;;;62.93;36.00;;;;;;;4.77;82.73;98664.65;1756055;81;25661;-73
2022/11/11 03:25:43;;;;;;;60.60;36.08;;;;;;;4.75;82.70;98662.12;1756194;81;27491;-75
2022/11/11 03:28:17;;;;;;;63.25;35.55;;;;;;;4.77;82.71;98663.31;1637599;87;25878;-74
2022/11/11 03:30:46;;;;;;;57.80;36.80;;;;;;;4.76;82.72;98655.78;1638333;87;25818;-73
2022/11/11 03:33:14;;;;;;;64.77;38.08;;;;;;;4.75;82.74;98658.10;1638436;87;25687;-74
2022/11/11 03:35:42;;;;;;;58.20;35.80;;;;;;;4.79;82.77;98651.98;1638435;86;25615;-73
2022/11/11 03:38:23;;;;;;;57.35;36.88;;;;;;;4.79;82.78;98653.31;1638321;87;27397;-73
2022/11/11 03:40:55;;;;;;;68.92;39.00;;;;;;;4.81;82.83;98652.69;1638415;87;25772;-73
2022/11/11 03:43:28;;;;;;;64.32;37.30;;;;;;;4.82;82.80;98651.20;1638488;87;25808;-75
2022/11/11 03:45:59;;;;;;;58.33;35.00;;;;;;;4.83;82.80;98643.50;1638326;87;26502;-73
2022/11/11 03:48:29;;;;;;;54.48;33.55;;;;;;;4.83;82.82;98638.15;1638434;87;25933;-74
2022/11/11 03:50:56;;;;;;;55.92;33.02;;;;;;;4.83;82.83;98637.34;1638329;87;27397;-73
2022/11/11 03:53:23;;;;;;;52.30;32.33;;;;;;;4.84;82.89;98645.68;1638447;87;25756;-74
2022/11/11 03:55:50;;;;;;;56.20;33.13;;;;;;;4.85;82.90;98642.02;1638410;87;25815;-74
2022/11/11 03:58:17;;;;;;;52.73;33.13;;;;;;;4.88;82.96;98643.08;1638300;87;25825;-74
2022/11/11 04:00:45;;;;;;;59.20;35.68;;;;;;;4.90;82.97;98646.45;1638388;87;26175;-75
2022/11/11 04:11:38;;;;;;;56.15;33.48;;;;;;;4.94;83.20;98641.17;1612853;88;25908;-73
2022/11/11 04:16:54;;;;;;;49.88;32.75;;;;;;;4.97;83.28;98636.34;1561266;91;27574;-74
2022/11/11 04:22:06;;;;;;;45.05;29.32;;;;;;;5.02;83.33;98635.92;1532821;93;25761;-74
2022/11/11 04:27:19;;;;;;;44.08;28.10;;;;;;;5.06;83.45;98633.31;1525415;93;26034;-73
2022/11/11 04:29:46;;;;;;;40.70;28.62;;;;;;;5.06;83.58;98635.49;1515215;94;28083;-73
2022/11/11 04:32:37;;;;;;;47.80;32.25;;;;;;;5.08;83.62;98639.34;1559850;91;25728;-74
2022/11/11 04:35:07;;;;;;;53.90;32.75;;;;;;;5.13;83.69;98643.77;1535008;93;26698;-74
2022/11/11 04:37:38;;;;;;;50.50;33.83;;;;;;;5.14;83.60;98641.44;1534948;93;25983;-75
2022/11/11 04:42:55;;;;;;;45.30;32.25;;;;;;;5.16;83.52;98620.73;1534677;93;28382;-73
2022/11/11 04:45:27;;;;;;;50.20;32.08;;;;;;;5.19;83.52;98621.78;1574452;91;25842;-73
2022/11/11 04:48:04;;;;;;;48.13;30.90;;;;;;;5.22;83.51;98626.81;1560133;91;25346;-74
2022/11/11 04:50:38;;;;;;;51.20;32.42;;;;;;;5.20;83.47;98635.48;1535635;93;25846;-74
2022/11/11 04:53:09;;;;;;;46.45;31.55;;;;;;;5.21;83.43;98637.17;1535501;93;25850;-74
2022/11/11 04:58:26;;;;;;;40.90;30.08;;;;;;;5.20;83.40;98632.80;1535328;93;25938;-73
2022/11/11 05:00:53;;;;;;;49.15;32.20;;;;;;;5.15;83.34;98631.08;1535341;93;37106;-75
2022/11/11 05:03:23;;;;;;;45.08;29.50;;;;;;;5.15;83.29;98628.41;1588491;89;26644;-73
2022/11/11 05:09:00;;;;;;;40.78;28.15;;;;;;;5.12;83.07;98627.84;1587441;90;28172;-74
2022/11/11 05:11:35;;;;;;;44.70;30.75;;;;;;;5.08;82.92;98628.63;1587386;90;25847;-74
2022/11/11 05:22:38;;;;;;;49.23;32.00;;;;;;;5.00;82.81;98636.56;1593705;90;27726;-73
2022/11/11 05:25:25;;;;;;;49.83;31.40;;;;;;;4.97;82.77;98642.19;1593877;90;25746;-73
2022/11/11 05:27:53;;;;;;;46.77;31.10;;;;;;;4.95;82.60;98656.23;1594019;90;25782;-74
2022/11/11 05:30:22;;;;;;;39.75;28.60;;;;;;;4.89;82.48;98654.13;1593929;90;27085;-74
2022/11/11 05:32:49;;;;;;;38.25;26.82;;;;;;;4.82;82.40;98657.05;1631428;87;25853;-73
2022/11/11 05:35:17;;;;;;;44.45;27.65;;;;;;;4.78;82.40;98655.15;1656218;86;28175;-73
2022/11/11 05:38:19;;;;;;;37.95;25.82;;;;;;;4.75;82.47;98656.77;1656202;86;25937;-75
2022/11/11 05:40:12;;;;;;;51.68;35.60;;;;;;;4.75;82.56;98669.30;1652966;86;25740;-74
2022/11/11 05:42:41;;;;;;;72.35;47.33;;;;;;;4.77;82.63;98671.34;1656399;86;26369;-75
2022/11/11 05:45:09;;;;;;;61.08;41.98;;;;;;;4.77;82.58;98678.03;1633678;87;25484;-75
2022/11/11 05:47:36;;;;;;;69.30;43.48;;;;;;;4.76;82.50;98672.33;1633571;87;27355;-74
2022/11/11 05:50:03;;;;;;;59.13;39.40;;;;;;;4.76;82.51;98670.98;1633614;87;25537;-74
2022/11/11 05:52:30;;;;;;;67.50;48.73;;;;;;;4.69;82.43;98674.25;1660922;84;25735;-73
2022/11/11 05:54:57;;;;;;;51.88;36.48;;;;;;;4.65;82.41;98683.53;1736272;82;25887;-74
2022/11/11 05:57:24;;;;;;;50.65;34.45;;;;;;;4.63;82.40;98682.83;1739984;82;25838;-73
2022/11/11 05:59:50;;;;;;;45.43;31.70;;;;;;;4.62;82.38;98689.66;1739962;82;28045;-75
2022/11/11 06:02:17;;;;;;;45.15;30.75;;;;;;;4.58;82.37;98690.46;1739687;82;25892;-74
2022/11/11 06:04:44;;;;;;;43.58;30.70;;;;;;;4.57;82.43;98699.95;1739760;82;25749;-74
2022/11/11 06:07:10;;;;;;;42.60;28.75;;;;;;;4.57;82.41;98710.16;1739549;82;25811;-75
2022/11/11 06:09:37;;;;;;;44.70;29.42;;;;;;;4.57;82.42;98712.84;1739931;82;25758;-74
2022/11/11 06:12:03;;;;;;;53.30;35.95;;;;;;;4.55;82.36;98720.16;1739986;82;27615;-74
2022/11/11 06:14:30;;;;;;;50.25;36.33;;;;;;;4.51;82.42;98726.75;1739686;82;25850;-76
2022/11/11 06:16:57;;;;;;;51.25;37.30;;;;;;;4.54;82.54;98739.01;1739544;82;25753;-74
2022/11/11 06:19:23;;;;;;;54.20;35.50;;;;;;;4.56;82.65;98740.56;1739963;82;25668;-73
2022/11/11 06:21:56;;;;;;;47.75;33.38;;;;;;;4.58;82.66;98749.30;1739894;82;25767;-76
2022/11/11 06:24:22;;;;;;;;;;;;;;;4.59;82.69;98742.93;1742475;82;27485;-74
2022/11/11 06:26:49;;;;;;;47.08;33.35;;;;;;;4.60;82.77;98728.58;1739858;82;25805;-74
2022/11/11 06:29:15;;;;;;;50.52;33.67;;;;;;;4.60;82.77;98736.59;1739903;82;25841;-73
2022/11/11 06:31:44;;;;;;;46.90;32.38;;;;;;;4.63;82.81;98734.14;1739892;82;26561;-74
2022/11/11 06:34:10;;;;;;;44.88;30.92;;;;;;;4.63;82.75;98736.81;1739917;82;25774;-74
2022/11/11 06:36:37;;;;;;;46.08;30.35;;;;;;;4.65;82.75;98738.86;1740016;82;28023;-73
2022/11/11 06:39:04;;;;;;;36.10;22.90;;;;;;;4.67;82.77;98736.40;1739899;82;25749;-76
2022/11/11 06:41:30;;;;;;;32.78;21.25;;;;;;;4.68;82.87;98733.23;1739826;82;25757;-74
2022/11/11 06:43:57;;;;;;;29.30;21.65;;;;;;;4.71;82.97;98733.77;1739853;82;25840;-73
2022/11/11 06:46:24;;;;;;;36.93;23.52;;;;;;;4.77;83.08;98738.22;1739754;82;25500;-73
2022/11/11 06:48:51;;;;;;;36.65;25.08;;;;;;;4.82;83.12;98735.97;1748923;81;27429;-73
2022/11/11 06:51:18;;;;;;;37.67;23.73;;;;;;;4.83;83.09;98739.81;1753249;81;25431;-74
2022/11/11 06:53:45;;;;;;;41.70;28.38;;;;;;;4.84;83.22;98730.80;1753248;81;25714;-74
2022/11/11 06:56:12;;;;;;;45.00;29.82;;;;;;;4.86;83.34;98729.33;1753068;81;25792;-73
2022/11/11 06:58:39;;;;;;;41.83;26.37;;;;;;;4.92;83.46;98728.28;1753289;81;25830;-73
2022/11/11 07:01:08;;;;;;;38.60;28.57;;;;;;;4.97;83.55;98726.48;1753206;81;28398;-75
2022/11/11 07:03:35;;;;;;;38.80;27.67;;;;;;;4.99;83.63;98716.00;1753118;81;25748;-74
2022/11/11 07:06:04;;;;;;;44.95;29.42;;;;;;;5.03;83.71;98713.88;1753014;81;25724;-73
2022/11/11 07:08:32;;;;;;;43.20;29.42;;;;;;;5.05;83.79;98706.56;1752956;81;26547;-74
2022/11/11 07:10:58;;;;;;;43.28;29.20;;;;;;;5.07;83.85;98703.25;1753231;81;25450;-73
2022/11/11 07:13:25;;;;;;;50.48;30.92;;;;;;;5.09;83.91;98703.92;1753331;81;28067;-75
2022/11/11 07:15:52;;;;;;;59.67;37.23;;;;;;;5.14;83.94;98707.02;1753129;81;25474;-74
2022/11/11 07:18:18;;;;;;;55.55;32.45;;;;;;;5.18;84.00;98712.93;1753233;81;25685;-75
2022/11/11 07:20:45;;;;;;;49.58;31.60;;;;;;;5.20;84.10;98720.30;1753124;81;25669;-74
2022/11/11 07:23:12;;;;;;;60.10;36.35;;;;;;;5.25;84.16;98720.22;1753120;81;25641;-73
2022/11/11 07:25:39;;;;;;;64.60;39.38;;;;;;;5.31;84.17;98718.28;1753144;81;27464;-73
2022/11/11 07:28:05;;;;;;;58.83;37.38;;;;;;;5.35;84.12;98706.30;1753115;81;25739;-74
2022/11/11 07:30:32;;;;;;;49.98;34.18;;;;;;;5.42;84.16;98705.23;1753150;81;25773;-73
2022/11/11 07:32:58;;;;;;;51.00;32.03;;;;;;;5.48;84.20;98707.31;1753346;81;25686;-75
2022/11/11 07:35:25;;;;;;;44.98;27.65;;;;;;;5.54;84.27;98696.52;1753140;81;25828;-74
2022/11/11 07:37:52;;;;;;;43.90;29.25;;;;;;;5.62;84.40;98705.98;1753204;81;26943;-75
2022/11/11 07:40:19;;;;;;;49.67;32.83;;;;;;;5.69;84.51;98706.56;1753158;81;25415;-74
2022/11/11 07:42:46;;;;;;;57.48;37.23;;;;;;;5.79;84.53;98695.81;1753320;81;26380;-73
2022/11/11 07:45:13;;;;;;;46.37;32.17;;;;;;;5.87;84.51;98705.28;1753127;81;25693;-74
2022/11/11 07:47:43;;;;;;;52.73;31.62;;;;;;;5.93;84.42;98713.23;1753157;81;25775;-73
2022/11/11 07:50:11;;;;;;;45.75;30.08;;;;;;;5.98;84.40;98703.76;1753067;81;28216;-74
2022/11/11 07:52:38;;;;;;;45.05;29.60;;;;;;;6.06;84.43;98699.81;1753257;81;25780;-75
2022/11/11 07:55:07;;;;;;;44.20;29.40;;;;;;;6.14;84.44;98697.24;1752981;81;25250;-73
2022/11/11 07:57:37;;;;;;;39.58;28.60;;;;;;;6.25;84.50;98704.71;1753341;81;25770;-73
2022/11/11 08:00:05;;;;;;;48.78;30.15;;;;;;;6.33;84.46;98698.92;1753470;81;25729;-74
2022/11/11 08:02:33;;;;;;;44.45;30.37;;;;;;;6.45;84.49;98699.53;1753273;81;27393;-74
2022/11/11 08:05:02;;;;;;;44.35;30.92;;;;;;;6.57;84.55;98700.14;1753188;81;25600;-75
2022/11/11 08:07:29;;;;;;;50.48;31.42;;;;;;;6.67;84.44;98704.41;1753114;81;25708;-75
2022/11/11 08:09:56;;;;;;;44.27;31.02;;;;;;;6.76;84.37;98707.50;1753360;81;25744;-73
2022/11/11 08:15:08;;;;;;;44.48;29.20;;;;;;;7.02;84.50;98710.71;1753011;81;28229;-74
2022/11/11 08:17:39;;;;;;;48.58;32.25;;;;;;;7.21;84.45;98698.44;1753212;81;26050;-74
2022/11/11 08:20:08;;;;;;;44.45;31.52;;;;;;;7.34;84.27;98701.54;1753356;81;25771;-74
2022/11/11 08:22:38;;;;;;;46.08;29.48;;;;;;;7.42;84.10;98694.86;1753342;81;25686;-74
2022/11/11 08:25:08;;;;;;;44.20;29.18;;;;;;;7.52;84.06;98682.64;1690784;84;25882;-73
2022/11/11 08:27:36;;;;;;;46.18;29.30;;;;;;;7.64;84.11;98675.13;1691064;84;27432;-74
2022/11/11 08:30:05;;;;;;;37.35;26.65;;;;;;;7.73;84.13;98670.15;1690875;84;25724;-74
2022/11/11 08:32:32;;;;;;;35.28;23.73;;;;;;;7.81;84.04;98663.45;1690902;84;25839;-75
2022/11/11 08:34:59;;;;;;;39.55;25.05;;;;;;;7.87;83.90;98664.12;1691124;84;26285;-74
2022/11/11 08:37:26;;;;;;;38.67;23.57;;;;;;;7.91;83.75;98666.83;1690991;84;25843;-74
2022/11/11 08:39:53;;;;;;;34.30;23.05;;;;;;;7.97;83.70;98662.13;1690946;84;28172;-73
2022/11/11 08:42:19;;;;;;;34.70;21.85;;;;;;;7.98;83.48;98660.28;1690782;84;25875;-74
2022/11/11 08:44:46;;;;;;;30.50;18.82;;;;;;;8.03;83.41;98657.45;1690940;84;25770;-74
2022/11/11 08:47:13;;;;;;;14.68;10.05;;;;;;;8.25;83.53;98662.19;1690999;84;25833;-74
2022/11/11 08:49:42;;;;;;;13.25;10.03;;;;;;;8.47;83.28;98661.22;1691057;84;25550;-73
2022/11/11 08:52:11;;;;;;;18.25;10.08;;;;;;;8.73;82.95;98670.48;1690916;84;28226;-75
2022/11/11 08:54:38;;;;;;;13.80;8.88;;;;;;;9.03;82.68;98665.25;1690982;84;25565;-74
2022/11/11 08:57:05;;;;;;;13.65;8.53;;;;;;;9.32;82.08;98665.16;1725904;82;25813;-73
2022/11/11 08:59:31;;;;;;;12.88;8.60;;;;;;;9.62;81.68;98673.00;1725775;83;25742;-74
2022/11/11 09:01:58;;;;;;;12.98;8.55;;;;;;;9.94;81.38;98670.64;1725951;82;25310;-75
2022/11/11 09:04:24;;;;;;;11.50;7.97;;;;;;;10.18;80.55;98670.54;1725616;83;27406;-74
2022/11/11 09:06:51;;;;;;;11.97;7.58;;;;;;;10.35;79.66;98684.27;1725489;82;25909;-73
2022/11/11 09:09:18;;;;;;;12.47;7.33;;;;;;;10.58;79.13;98691.53;1725159;83;25806;-75
2022/11/11 09:11:44;;;;;;;13.93;7.78;;;;;;;10.77;78.85;98682.93;1720093;83;26496;-74
2022/11/11 09:14:11;;;;;;;11.53;6.67;;;;;;;10.98;78.62;98675.00;1725828;83;26877;-75
2022/11/11 09:16:37;;;;;;;11.75;6.97;;;;;;;11.24;78.24;98673.70;1725789;82;27348;-74
2022/11/11 09:19:04;;;;;;;11.93;6.28;;;;;;;11.48;77.76;98665.34;1725895;83;25525;-75
2022/11/11 09:21:31;;;;;;;11.63;6.05;;;;;;;11.67;77.41;98657.19;1747040;80;25818;-76
2022/11/11 09:23:59;;;;;;;8.95;6.00;;;;;;;11.83;76.87;98667.30;1790634;80;25660;-74
2022/11/11 09:26:26;;;;;;;12.13;6.00;;;;;;;12.00;76.58;98661.69;1753207;81;25666;-74
2022/11/11 09:28:52;;;;;;;12.68;6.45;;;;;;;12.18;76.05;98664.83;1736832;82;26867;-74
2022/11/11 09:31:19;;;;;;;11.05;6.20;;;;;;;12.42;75.79;98663.11;1736692;82;25678;-74
2022/11/11 09:33:45;;;;;;;12.10;6.70;;;;;;;12.68;75.26;98663.05;1736855;82;25795;-74
2022/11/11 09:36:12;;;;;;;12.18;6.17;;;;;;;12.96;75.31;98662.55;1736762;82;25869;-74
2022/11/11 09:38:39;;;;;;;13.18;6.72;;;;;;;13.23;74.85;98657.70;1721407;83;25259;-75
2022/11/11 09:41:23;;;;;;;11.10;6.70;;;;;;;13.46;74.79;98657.95;1736927;82;28078;-74
2022/11/11 09:43:59;;;;;;;12.47;7.15;;;;;;;13.64;73.88;98653.66;1713185;83;25855;-75
2022/11/11 09:46:54;;;;;;;15.65;7.78;;;;;;;13.84;73.68;98640.72;1740045;82;25708;-73
2022/11/11 09:49:29;;;;;;;12.55;7.40;;;;;;;13.92;72.49;98625.61;1700121;83;25832;-74
2022/11/11 09:52:01;;;;;;;12.33;8.05;;;;;;;13.93;71.78;98624.05;1761522;80;25785;-75
2022/11/11 09:54:54;;;;;;;12.07;8.33;;;;;;;13.97;71.19;98627.20;1700301;83;27386;-76
2022/11/11 09:57:36;;;;;;;;;;;;;;;13.93;69.86;98634.08;1742319;81;26461;-74
2022/11/11 10:00:08;;;;;;;12.53;6.57;;;;;;;13.94;69.59;98646.09;1734496;82;25795;-75
2022/11/11 10:02:54;;;;;;;11.33;7.22;;;;;;;14.07;70.06;98634.45;1693077;83;25860;-74
2022/11/11 10:05:43;;;;;;;12.35;6.97;;;;;;;14.16;69.66;98647.30;1666105;85;25846;-74
2022/11/11 10:08:18;;;;;;;11.65;6.58;;;;;;;14.20;69.26;98652.14;1668721;85;27400;-74
2022/11/11 10:10:49;;;;;;;13.30;7.75;;;;;;;14.29;68.69;98645.99;1682049;85;25459;-76
2022/11/11 10:13:34;;;;;;;13.20;6.67;;;;;;;14.39;68.77;98636.92;1681706;85;25835;-74
2022/11/11 10:16:23;;;;;;;12.40;6.62;;;;;;;14.55;68.52;98640.66;1679804;85;25753;-74
2022/11/11 10:19:23;;;;;;;11.43;6.30;;;;;;;14.73;67.81;98627.83;1681942;84;25903;-73
2022/11/11 10:21:53;;;;;;;10.13;5.90;;;;;;;14.89;67.31;98627.92;1645886;85;27393;-76
2022/11/11 10:24:37;;;;;;;8.68;4.92;;;;;;;15.02;66.84;98630.11;1680315;85;25855;-76
2022/11/11 10:27:11;;;;;;;8.23;4.67;;;;;;;15.00;66.24;98632.72;1660840;86;25466;-75
2022/11/11 10:29:43;;;;;;;7.12;4.17;;;;;;;15.12;65.96;98636.48;1604584;89;25774;-75
2022/11/11 10:32:20;;;;;;;7.67;3.87;;;;;;;15.25;64.88;98624.75;1561903;91;25959;-74
2022/11/11 10:34:47;;;;;;;7.28;3.67;;;;;;;15.31;64.81;98626.12;1551577;91;27457;-74
2022/11/11 10:37:28;;;;;;;8.15;5.15;;;;;;;15.38;64.72;98628.81;1541541;92;26007;-74
2022/11/11 10:40:12;;;;;;;10.32;4.53;;;;;;;15.46;64.78;98622.61;1544326;91;25872;-75
2022/11/11 10:42:38;;;;;;;9.28;4.78;;;;;;;15.53;64.43;98625.33;1561607;91;25919;-74
2022/11/11 10:45:10;;;;;;;9.43;5.42;;;;;;;15.60;63.80;98628.89;1561690;91;26020;-74
2022/11/11 10:47:48;;;;;;;8.00;4.80;;;;;;;15.73;63.64;98627.48;1519539;93;27449;-74
2022/11/11 10:50:30;;;;;;;9.48;5.12;;;;;;;15.96;63.41;98622.89;1511804;94;25783;-75
2022/11/11 10:53:23;;;;;;;11.60;7.50;;;;;;;16.24;63.46;98614.38;1516743;94;25348;-77
2022/11/11 10:55:57;;;;;;;8.33;4.25;;;;;;;16.58;63.29;98613.11;1516179;94;25707;-76
2022/11/11 10:58:54;;;;;;;6.00;4.28;;;;;;;16.97;62.49;98615.27;1517026;93;25468;-75
2022/11/11 11:01:32;;;;;;;5.12;3.50;;;;;;;17.17;60.75;98615.91;1514389;94;27413;-74
2022/11/11 11:04:10;;;;;;;7.00;3.47;;;;;;;17.25;60.06;98607.45;1527350;92;25927;-75
2022/11/11 11:06:40;;;;;;;7.03;3.92;;;;;;;17.20;60.11;98602.66;1551584;91;25812;-74
2022/11/11 11:09:33;;;;;;;7.10;3.98;;;;;;;17.04;59.65;98599.66;1550470;92;25789;-75
2022/11/11 11:12:04;;;;;;;6.60;4.28;;;;;;;16.95;59.56;98603.73;1550227;92;25348;-74
2022/11/11 11:14:42;;;;;;;7.15;4.40;;;;;;;16.81;59.58;98602.48;1550672;92;27413;-74
2022/11/11 11:17:23;;;;;;;6.67;3.75;;;;;;;16.79;59.51;98603.23;1550516;92;26497;-74
2022/11/11 11:20:00;;;;;;;7.12;3.67;;;;;;;16.85;59.24;98595.53;1533628;92;25796;-73
2022/11/11 11:22:50;;;;;;;7.47;4.15;;;;;;;17.10;59.27;98593.33;1555260;91;25699;-74
2022/11/11 11:25:19;;;;;;;5.90;3.87;;;;;;;17.44;59.42;98588.66;1493591;96;25862;-75
2022/11/11 11:27:49;;;;;;;7.08;5.08;;;;;;;17.77;58.32;98590.20;1493686;96;27470;-74
2022/11/11 11:30:25;;;;;;;7.78;4.42;;;;;;;17.97;58.18;98592.17;1493530;96;25902;-74
2022/11/11 11:33:01;;;;;;;6.03;4.10;;;;;;;18.15;57.09;98588.56;1493652;96;25839;-74
2022/11/11 11:35:43;;;;;;;7.25;4.47;;;;;;;18.25;55.83;98579.27;1514729;93;25764;-74
2022/11/11 11:38:12;;;;;;;9.18;4.58;;;;;;;18.33;56.14;98581.16;1537544;93;25873;-75
2022/11/11 11:40:55;;;;;;;7.30;4.45;;;;;;;18.56;56.22;98574.92;1547147;90;27607;-74
2022/11/11 11:43:33;;;;;;;9.18;4.53;;;;;;;18.74;56.04;98575.39;1558399;91;26015;-76
2022/11/11 11:46:23;;;;;;;5.25;3.67;;;;;;;19.02;55.77;98571.45;1565636;91;25845;-74
2022/11/11 11:48:58;;;;;;;7.90;4.70;;;;;;;19.30;55.10;98565.27;1565856;91;26476;-74
2022/11/11 11:52:12;;;;;;;8.85;4.40;;;;;;;19.47;54.29;98557.13;1563641;91;25934;-74
2022/11/11 11:55:02;;;;;;;6.83;4.15;;;;;;;19.42;53.00;98567.99;1517202;93;27411;-74
2022/11/11 11:57:55;;;;;;;6.35;4.78;;;;;;;19.46;53.01;98564.22;1513649;94;26410;-74
2022/11/11 12:00:27;;;;;;;6.12;4.35;;;;;;;19.55;53.22;98566.41;1527915;93;25918;-74
2022/11/11 12:03:18;;;;;;;7.00;4.60;;;;;;;19.57;52.40;98562.86;1516927;94;26528;-75
2022/11/11 12:05:55;;;;;;;6.40;4.15;;;;;;;19.59;52.16;98555.23;1554719;91;25582;-76
2022/11/11 12:08:57;;;;;;;5.75;4.17;;;;;;;19.55;51.38;98548.59;1557655;91;26795;-74
2022/11/11 12:11:46;;;;;;;5.75;3.50;;;;;;;19.45;51.95;98542.84;1559191;91;25904;-76
2022/11/11 12:14:27;;;;;;;5.17;3.47;;;;;;;19.48;51.41;98536.89;1557619;91;25744;-75
2022/11/11 12:17:27;;;;;;;7.50;3.85;;;;;;;19.64;51.35;98543.57;1555911;92;25850;-75
2022/11/11 12:20:04;;;;;;;5.70;4.08;;;;;;;19.63;50.32;98544.11;1557665;92;25771;-75
2022/11/11 12:23:09;;;;;;;6.08;4.17;;;;;;;19.45;50.37;98555.17;1510163;95;26863;-76
2022/11/11 12:26:02;;;;;;;8.43;4.28;;;;;;;19.37;50.70;98559.12;1509703;95;25931;-75
2022/11/11 12:29:04;;;;;;;;;;;;;;;19.40;50.13;98560.02;1512290;95;25866;-74
2022/11/11 12:31:51;;;;;;;4.53;3.70;;;;;;;19.36;48.81;98551.14;1473929;95;26390;-75
2022/11/11 12:34:38;;;;;;;5.90;3.33;;;;;;;19.28;49.34;98567.41;1504514;94;25842;-75
2022/11/11 12:37:45;;;;;;;5.33;3.52;;;;;;;19.13;49.39;98562.94;1470204;97;28205;-74
2022/11/11 12:40:51;;;;;;;7.60;3.60;;;;;;;19.11;49.53;98560.14;1537334;92;25866;-76
2022/11/11 12:43:35;;;;;;;6.30;3.50;;;;;;;19.10;49.45;98566.68;1523089;94;25800;-75
2022/11/11 12:46:56;;;;;;;7.12;3.92;;;;;;;19.10;49.35;98546.16;1523094;94;26476;-74
2022/11/11 12:49:47;;;;;;;4.67;3.25;;;;;;;19.10;49.28;98551.63;1534977;92;25535;-74
2022/11/11 12:52:56;;;;;;;6.03;3.98;;;;;;;19.00;48.71;98555.80;1566481;90;27483;-74